Terminal Aerodrome Forecast
Issued by NWS

Home | Current Version | Previous Version | Text Only | Print | Product List | Glossary On
Versions: 1 2 3 4 5 6 7 8 9 10 11 12 13 14 15 16 17 18 19 20 21 22 23 24 25 26 27 28 29 30 31 32 33
000
FTUS43 KPAH 151700
TAFOWB
TAF
KOWB 151720Z 1518/1618 20007KT P6SM SCT035 BKN070
     FM160100 23004KT P6SM VCSH SCT025 BKN050
     FM160400 33005KT P6SM SCT008 OVC012
     FM160700 34006KT P6SM SCT013 OVC020
      TEMPO 1607/1610 BKN013
     FM161600 01006KT P6SM SCT025=

USA.gov is the U.S. government's official web portal to all federal, state and local government web resources and services.